Time;durP1;ratioP1;P1;durP2;ratioP2;P2;SDS_P1;SDS_P2;PMS_P1;PMS_P2;Temp;Humidity;BMP_temperature;BMP_pressure;BME280_temperature;BME280_humidity;BME280_pressure;Samples;Min_cycle;Max_cycle;Signal;HPM_P1;HPM_P2
2021/04/09 00:00:28;;;;;;;6.47;2.05;;;;;;;;;;5098261;28;20043;-65
2021/04/09 00:02:56;;;;;;;13.23;2.90;;;;;;;;;;5090359;28;20435;-65
2021/04/09 00:05:22;;;;;;;6.95;2.35;;;;;;;;;;5089616;28;20047;-65
2021/04/09 00:07:49;;;;;;;7.65;2.10;;;;;;;;;;5089930;28;20040;-65
2021/04/09 00:10:15;;;;;;;6.88;2.45;;;;;;;;;;5090004;28;20096;-65
2021/04/09 00:12:40;;;;;;;11.45;2.45;;;;;;;;;;5089385;28;20139;-65
2021/04/09 00:15:07;;;;;;;13.25;3.03;;;;;;;;;;5089601;28;20039;-65
2021/04/09 00:17:33;;;;;;;10.38;2.72;;;;;;;;;;5089648;28;20495;-65
2021/04/09 00:19:58;;;;;;;11.45;2.55;;;;;;;;;;5089840;28;20032;-65
2021/04/09 00:22:23;;;;;;;9.60;2.80;;;;;;;;;;5089402;28;20032;-65
2021/04/09 00:24:48;;;;;;;10.85;2.67;;;;;;;;;;5103147;28;20769;-65
2021/04/09 00:27:14;;;;;;;10.38;2.22;;;;;;;;;;5089183;28;20044;-65
2021/04/09 00:29:39;;;;;;;10.73;3.45;;;;;;;;;;5089357;28;20093;-65
2021/04/09 00:32:04;;;;;;;6.85;2.95;;;;;;;;;;5089481;28;20023;-65
2021/04/09 00:34:30;;;;;;;7.88;2.58;;;;;;;;;;5085352;28;20035;-65
2021/04/09 00:36:55;;;;;;;6.38;2.90;;;;;;;;;;5088670;28;20046;-65
2021/04/09 00:39:20;;;;;;;12.30;3.03;;;;;;;;;;5089413;28;20052;-65
2021/04/09 00:41:46;;;;;;;15.60;2.97;;;;;;;;;;5088477;28;20040;-65
2021/04/09 00:44:11;;;;;;;9.30;3.40;;;;;;;;;;5089792;28;20048;-66
2021/04/09 00:46:37;;;;;;;13.85;3.35;;;;;;;;;;5088813;28;20016;-65
2021/04/09 00:49:02;;;;;;;9.43;3.70;;;;;;;;;;5089094;28;20028;-65
2021/04/09 00:51:28;;;;;;;17.13;3.45;;;;;;;;;;5089337;28;20115;-65
2021/04/09 00:53:53;;;;;;;13.82;2.97;;;;;;;;;;5088645;28;20088;-65
2021/04/09 00:56:19;;;;;;;11.27;3.53;;;;;;;;;;5070607;28;20928;-65
2021/04/09 00:58:45;;;;;;;15.15;2.97;;;;;;;;;;5088858;28;20503;-65
2021/04/09 01:01:11;;;;;;;12.27;4.38;;;;;;;;;;5089037;28;20095;-66
2021/04/09 01:03:37;;;;;;;13.95;4.40;;;;;;;;;;5088322;28;20028;-65
2021/04/09 01:06:03;;;;;;;13.93;3.28;;;;;;;;;;5088592;28;20464;-65
2021/04/09 01:08:28;;;;;;;9.48;2.75;;;;;;;;;;5088607;28;20028;-65
2021/04/09 01:10:54;;;;;;;8.07;3.63;;;;;;;;;;5088565;28;20475;-65
2021/04/09 01:13:19;;;;;;;16.52;3.30;;;;;;;;;;5088335;28;20036;-65
2021/04/09 01:15:45;;;;;;;7.43;3.53;;;;;;;;;;5088378;28;20012;-65
2021/04/09 01:18:13;;;;;;;9.40;3.45;;;;;;;;;;5088082;28;20032;-65
2021/04/09 01:20:38;;;;;;;8.43;3.22;;;;;;;;;;5088652;28;20166;-65
2021/04/09 01:23:32;;;;;;;13.43;3.65;;;;;;;;;;5091742;28;20094;-66
2021/04/09 01:25:58;;;;;;;9.43;3.38;;;;;;;;;;5068366;28;20712;-65
2021/04/09 01:28:26;;;;;;;8.57;3.53;;;;;;;;;;5088440;28;20048;-66
2021/04/09 01:30:54;;;;;;;15.73;4.13;;;;;;;;;;5088417;28;20012;-65
2021/04/09 01:33:33;;;;;;;11.30;3.05;;;;;;;;;;5087585;28;20422;-65
2021/04/09 01:36:02;;;;;;;14.15;4.13;;;;;;;;;;5088540;28;20094;-65
2021/04/09 01:38:29;;;;;;;8.35;2.90;;;;;;;;;;5088298;28;20064;-65
2021/04/09 01:40:55;;;;;;;6.97;2.92;;;;;;;;;;5087631;28;20024;-65
2021/04/09 01:43:21;;;;;;;11.27;3.83;;;;;;;;;;5088321;28;20724;-65
2021/04/09 01:45:48;;;;;;;16.08;3.88;;;;;;;;;;5088010;28;20028;-65
2021/04/09 01:48:13;;;;;;;5.30;2.72;;;;;;;;;;5088073;28;20055;-65
2021/04/09 01:50:40;;;;;;;13.57;3.00;;;;;;;;;;5070815;28;20024;-65
2021/04/09 01:53:06;;;;;;;9.32;3.10;;;;;;;;;;5088109;28;20119;-66
2021/04/09 01:55:33;;;;;;;9.88;2.60;;;;;;;;;;5087350;28;20042;-65
2021/04/09 01:57:59;;;;;;;8.85;3.15;;;;;;;;;;5088189;28;20026;-65
2021/04/09 02:00:25;;;;;;;15.07;3.97;;;;;;;;;;5087751;28;20107;-65
2021/04/09 02:02:51;;;;;;;9.45;2.53;;;;;;;;;;5087078;28;20126;-65
2021/04/09 02:05:17;;;;;;;9.80;3.33;;;;;;;;;;5087834;28;20455;-65
2021/04/09 02:07:43;;;;;;;5.28;2.10;;;;;;;;;;5087733;28;20036;-66
2021/04/09 02:10:09;;;;;;;9.57;2.53;;;;;;;;;;5087464;28;20047;-66
2021/04/09 02:12:35;;;;;;;9.38;2.08;;;;;;;;;;5087425;28;20103;-65
2021/04/09 02:15:01;;;;;;;10.10;2.30;;;;;;;;;;5087819;28;20136;-66
2021/04/09 02:17:26;;;;;;;10.77;2.00;;;;;;;;;;5087418;28;20387;-65
2021/04/09 02:19:52;;;;;;;6.90;2.08;;;;;;;;;;5087800;28;20046;-65
2021/04/09 02:22:18;;;;;;;8.07;2.28;;;;;;;;;;5087235;28;20535;-65
2021/04/09 02:24:47;;;;;;;9.82;2.40;;;;;;;;;;5086412;28;20102;-65
2021/04/09 02:27:12;;;;;;;14.52;3.45;;;;;;;;;;5087488;28;20028;-65
2021/04/09 02:29:38;;;;;;;9.90;2.35;;;;;;;;;;5087669;28;20043;-65
2021/04/09 02:32:03;;;;;;;7.00;2.00;;;;;;;;;;5087468;28;20039;-65
2021/04/09 02:34:28;;;;;;;10.15;2.28;;;;;;;;;;5087156;28;20031;-65
2021/04/09 02:36:54;;;;;;;8.02;2.17;;;;;;;;;;5086951;28;20032;-65
2021/04/09 02:39:21;;;;;;;7.35;2.35;;;;;;;;;;5087474;28;20056;-65
2021/04/09 02:41:47;;;;;;;10.18;2.60;;;;;;;;;;5087462;28;20020;-65
2021/04/09 02:44:13;;;;;;;10.30;2.00;;;;;;;;;;5087296;28;20060;-65
2021/04/09 02:46:52;;;;;;;8.00;2.13;;;;;;;;;;5086858;28;20066;-65
2021/04/09 02:49:20;;;;;;;11.18;2.08;;;;;;;;;;5087660;28;20036;-64
2021/04/09 02:51:46;;;;;;;16.27;2.30;;;;;;;;;;5087380;28;20070;-65
2021/04/09 02:54:15;;;;;;;10.52;3.08;;;;;;;;;;5086854;28;20135;-65
2021/04/09 02:56:40;;;;;;;6.60;2.30;;;;;;;;;;5070694;28;20032;-65
2021/04/09 02:59:08;;;;;;;8.15;2.42;;;;;;;;;;5087704;28;20085;-65
2021/04/09 03:01:34;;;;;;;10.13;2.63;;;;;;;;;;5086953;28;20028;-65
2021/04/09 03:04:00;;;;;;;12.38;2.85;;;;;;;;;;5087493;28;20059;-65
2021/04/09 03:06:26;;;;;;;10.68;2.70;;;;;;;;;;5086422;28;20048;-65
2021/04/09 03:08:51;;;;;;;9.00;2.50;;;;;;;;;;5087124;28;20090;-65
2021/04/09 03:11:20;;;;;;;6.80;2.35;;;;;;;;;;5087567;28;20036;-65
2021/04/09 03:13:45;;;;;;;7.82;2.40;;;;;;;;;;5087419;28;20085;-65
2021/04/09 03:16:13;;;;;;;9.13;2.53;;;;;;;;;;5086702;28;20028;-65
2021/04/09 03:18:38;;;;;;;6.38;2.70;;;;;;;;;;5068884;28;20028;-65
2021/04/09 03:21:05;;;;;;;13.13;2.60;;;;;;;;;;5087341;28;20521;-65
2021/04/09 03:23:30;;;;;;;15.35;2.67;;;;;;;;;;5094621;28;20024;-65
2021/04/09 03:25:55;;;;;;;10.85;3.63;;;;;;;;;;5093208;28;20392;-65
2021/04/09 03:28:21;;;;;;;13.27;4.22;;;;;;;;;;5086350;28;20048;-65
2021/04/09 03:30:51;;;;;;;11.80;3.28;;;;;;;;;;5086646;28;20065;-65
2021/04/09 03:33:18;;;;;;;14.60;4.63;;;;;;;;;;5087063;28;20032;-65
2021/04/09 03:35:43;;;;;;;16.10;3.88;;;;;;;;;;5088710;28;20032;-65
2021/04/09 03:38:08;;;;;;;9.45;3.00;;;;;;;;;;5089560;28;20082;-65
2021/04/09 03:40:33;;;;;;;10.07;2.90;;;;;;;;;;5090873;28;20575;-65
2021/04/09 03:42:59;;;;;;;14.43;3.88;;;;;;;;;;5090594;28;20043;-65
2021/04/09 03:45:24;;;;;;;12.35;3.85;;;;;;;;;;5090424;28;20012;-65
2021/04/09 03:47:49;;;;;;;10.48;3.80;;;;;;;;;;5089491;28;20546;-65
2021/04/09 03:50:15;;;;;;;10.90;3.80;;;;;;;;;;5090685;28;20035;-66
2021/04/09 03:52:40;;;;;;;11.10;3.63;;;;;;;;;;5089933;28;20012;-65
2021/04/09 03:55:07;;;;;;;10.38;3.15;;;;;;;;;;5090475;28;20111;-65
2021/04/09 03:57:32;;;;;;;11.75;3.50;;;;;;;;;;5090135;28;20089;-65
2021/04/09 03:59:58;;;;;;;9.77;3.15;;;;;;;;;;5089652;28;20637;-66
2021/04/09 04:02:23;;;;;;;9.77;3.10;;;;;;;;;;5089929;28;20036;-65
2021/04/09 04:04:48;;;;;;;9.27;2.92;;;;;;;;;;5090546;28;20130;-65
2021/04/09 04:07:13;;;;;;;7.82;3.97;;;;;;;;;;5090067;28;20024;-65
2021/04/09 04:09:39;;;;;;;9.93;2.30;;;;;;;;;;5089203;28;20027;-66
2021/04/09 04:12:05;;;;;;;9.57;3.30;;;;;;;;;;5090066;28;20451;-65
2021/04/09 04:14:30;;;;;;;19.42;3.80;;;;;;;;;;5090032;28;20032;-66
2021/04/09 04:16:55;;;;;;;13.40;5.03;;;;;;;;;;5088980;28;20024;-65
2021/04/09 04:19:20;;;;;;;9.45;2.78;;;;;;;;;;5089186;28;20051;-65
2021/04/09 04:21:46;;;;;;;13.07;3.45;;;;;;;;;;5089541;28;20024;-65
2021/04/09 04:24:11;;;;;;;6.93;2.50;;;;;;;;;;5102934;28;20116;-65
2021/04/09 04:26:36;;;;;;;8.88;2.72;;;;;;;;;;5089848;28;20062;-65
2021/04/09 04:29:02;;;;;;;11.27;2.70;;;;;;;;;;5089197;28;20036;-65
2021/04/09 04:31:27;;;;;;;11.90;3.00;;;;;;;;;;5088761;28;20031;-65
2021/04/09 04:33:53;;;;;;;10.27;3.45;;;;;;;;;;5089458;28;20036;-65
2021/04/09 04:36:18;;;;;;;7.45;2.70;;;;;;;;;;5089404;28;20020;-65
2021/04/09 04:38:44;;;;;;;5.65;2.58;;;;;;;;;;5089019;28;20044;-65
2021/04/09 04:41:09;;;;;;;9.38;2.88;;;;;;;;;;5088874;28;20036;-65
2021/04/09 04:43:34;;;;;;;8.88;3.05;;;;;;;;;;5089220;28;20020;-65
2021/04/09 04:46:00;;;;;;;6.97;2.90;;;;;;;;;;5089361;28;20039;-65
2021/04/09 04:48:25;;;;;;;8.73;3.20;;;;;;;;;;5088132;28;20108;-65
2021/04/09 04:50:53;;;;;;;13.35;3.60;;;;;;;;;;5089061;28;20277;-65
2021/04/09 04:53:18;;;;;;;9.63;3.10;;;;;;;;;;5088300;28;20039;-65
2021/04/09 04:55:44;;;;;;;13.77;3.45;;;;;;;;;;5070960;28;20040;-65
2021/04/09 04:58:09;;;;;;;13.15;3.08;;;;;;;;;;5089247;28;20016;-65
2021/04/09 05:00:34;;;;;;;11.32;2.65;;;;;;;;;;5088484;28;20724;-65
2021/04/09 05:02:59;;;;;;;11.38;3.58;;;;;;;;;;5088547;28;20142;-65
2021/04/09 05:05:25;;;;;;;9.43;3.33;;;;;;;;;;5089084;28;20020;-65
2021/04/09 05:07:50;;;;;;;7.78;2.50;;;;;;;;;;5088611;28;20135;-65
2021/04/09 05:10:15;;;;;;;7.20;2.67;;;;;;;;;;5088802;28;20483;-65
2021/04/09 05:12:41;;;;;;;9.90;3.00;;;;;;;;;;5088625;28;20035;-66
2021/04/09 05:15:07;;;;;;;12.13;3.65;;;;;;;;;;5088178;28;20032;-65
2021/04/09 05:17:34;;;;;;;10.52;2.88;;;;;;;;;;5088298;28;20032;-65
2021/04/09 05:19:59;;;;;;;8.27;2.90;;;;;;;;;;5088942;28;20028;-65
2021/04/09 05:22:24;;;;;;;14.80;3.40;;;;;;;;;;5088053;28;20112;-65
2021/04/09 05:24:49;;;;;;;11.48;3.08;;;;;;;;;;5096096;28;20507;-65
2021/04/09 05:27:15;;;;;;;6.03;2.92;;;;;;;;;;5070249;28;20111;-65
2021/04/09 05:29:41;;;;;;;8.75;2.92;;;;;;;;;;5088269;28;20043;-65
2021/04/09 05:32:10;;;;;;;10.05;3.20;;;;;;;;;;5087893;28;20031;-65
2021/04/09 05:34:35;;;;;;;7.97;3.30;;;;;;;;;;5088145;28;20383;-65
2021/04/09 05:37:00;;;;;;;7.60;3.28;;;;;;;;;;5088287;28;20043;-65
2021/04/09 05:39:26;;;;;;;5.85;3.00;;;;;;;;;;5069883;28;20063;-65
2021/04/09 05:41:51;;;;;;;16.38;3.42;;;;;;;;;;5087850;28;20495;-65
2021/04/09 05:44:17;;;;;;;14.23;3.72;;;;;;;;;;5088119;28;20035;-65
2021/04/09 05:46:42;;;;;;;11.32;3.55;;;;;;;;;;5087730;28;20032;-66
2021/04/09 05:49:07;;;;;;;10.65;3.47;;;;;;;;;;5088442;28;20026;-65
2021/04/09 05:51:34;;;;;;;13.85;3.63;;;;;;;;;;5087476;28;20509;-65
2021/04/09 05:53:59;;;;;;;12.88;4.40;;;;;;;;;;5094112;28;20108;-65
2021/04/09 05:56:25;;;;;;;11.95;4.60;;;;;;;;;;5089248;28;20056;-65
2021/04/09 05:58:51;;;;;;;14.25;2.53;;;;;;;;;;5087590;28;20032;-66
2021/04/09 06:01:16;;;;;;;10.82;3.22;;;;;;;;;;5093567;28;20044;-65
2021/04/09 06:03:42;;;;;;;7.03;2.53;;;;;;;;;;5087643;28;20558;-65
2021/04/09 06:06:08;;;;;;;11.05;3.78;;;;;;;;;;5087383;28;20032;-65
2021/04/09 06:08:33;;;;;;;8.93;2.83;;;;;;;;;;5087647;28;20545;-65
2021/04/09 06:10:58;;;;;;;7.03;2.78;;;;;;;;;;5087850;28;20496;-65
2021/04/09 06:13:23;;;;;;;11.35;2.90;;;;;;;;;;5087443;28;20115;-65
2021/04/09 06:15:49;;;;;;;16.38;2.92;;;;;;;;;;5076992;28;20040;-65
2021/04/09 06:18:14;;;;;;;4.45;2.40;;;;;;;;;;5082729;28;20093;-66
2021/04/09 06:20:39;;;;;;;6.35;2.67;;;;;;;;;;5083793;28;20034;-65
2021/04/09 06:23:05;;;;;;;6.25;2.47;;;;;;;;;;5091242;28;20368;-66
2021/04/09 06:25:30;;;;;;;11.02;2.53;;;;;;;;;;5097566;28;20085;-65
2021/04/09 06:27:55;;;;;;;7.53;2.30;;;;;;;;;;5086734;28;20044;-65
2021/04/09 06:30:21;;;;;;;5.30;1.83;;;;;;;;;;5087460;28;20280;-66
2021/04/09 06:32:46;;;;;;;5.00;2.60;;;;;;;;;;5087363;28;20016;-66
2021/04/09 06:35:12;;;;;;;4.93;2.00;;;;;;;;;;5087760;28;20032;-65
2021/04/09 06:37:37;;;;;;;3.13;1.90;;;;;;;;;;5087531;28;20039;-65
2021/04/09 06:40:03;;;;;;;5.50;2.00;;;;;;;;;;5087401;28;20044;-66
2021/04/09 06:42:29;;;;;;;6.45;2.10;;;;;;;;;;5086162;28;20124;-66
2021/04/09 06:44:54;;;;;;;5.60;2.15;;;;;;;;;;5079464;28;20107;-65
2021/04/09 06:47:20;;;;;;;9.98;2.00;;;;;;;;;;5080305;28;20474;-66
2021/04/09 06:49:45;;;;;;;3.20;1.80;;;;;;;;;;5086887;28;20028;-65
2021/04/09 06:52:14;;;;;;;3.38;1.35;;;;;;;;;;5087354;28;20089;-66
2021/04/09 06:54:43;;;;;;;4.72;1.50;;;;;;;;;;5070616;28;20491;-66
2021/04/09 06:57:12;;;;;;;9.13;1.95;;;;;;;;;;5087384;28;20032;-66
2021/04/09 06:59:42;;;;;;;10.20;1.90;;;;;;;;;;5086712;28;20035;-66
2021/04/09 07:02:11;;;;;;;5.90;2.70;;;;;;;;;;5087230;28;20388;-66
2021/04/09 07:04:36;;;;;;;5.50;2.75;;;;;;;;;;5086982;28;20032;-66
2021/04/09 07:07:07;;;;;;;5.82;2.40;;;;;;;;;;5086793;28;20085;-67
2021/04/09 07:09:32;;;;;;;5.43;1.52;;;;;;;;;;5087536;28;20071;-66
2021/04/09 07:11:57;;;;;;;6.68;1.30;;;;;;;;;;5090690;28;20454;-66
2021/04/09 07:14:43;;;;;;;7.90;1.70;;;;;;;;;;5090585;28;20032;-66
2021/04/09 07:17:08;;;;;;;2.72;1.30;;;;;;;;;;5076840;28;20450;-67
2021/04/09 07:19:34;;;;;;;4.55;1.50;;;;;;;;;;5090049;28;20482;-66
2021/04/09 07:22:00;;;;;;;5.40;2.72;;;;;;;;;;5089325;28;20718;-66
2021/04/09 07:24:26;;;;;;;9.60;2.50;;;;;;;;;;5081257;28;20553;-66
2021/04/09 07:26:52;;;;;;;7.28;2.80;;;;;;;;;;5087622;28;20055;-67
2021/04/09 07:29:35;;;;;;;9.70;3.08;;;;;;;;;;5087781;28;20625;-67
2021/04/09 07:32:07;;;;;;;8.27;2.70;;;;;;;;;;5088036;28;20024;-67
2021/04/09 07:34:52;;;;;;;4.32;1.98;;;;;;;;;;5082878;28;20119;-67
2021/04/09 07:37:18;;;;;;;8.57;1.95;;;;;;;;;;5086098;28;20034;-67
2021/04/09 07:39:43;;;;;;;7.57;2.03;;;;;;;;;;5087217;28;20052;-65
2021/04/09 07:42:09;;;;;;;4.47;1.75;;;;;;;;;;5087733;28;20498;-66
2021/04/09 07:44:36;;;;;;;4.97;1.70;;;;;;;;;;5089783;28;20030;-65
2021/04/09 07:47:15;;;;;;;5.72;1.60;;;;;;;;;;5089792;28;20743;-65
2021/04/09 07:49:40;;;;;;;5.95;1.67;;;;;;;;;;5090089;28;20382;-65
2021/04/09 07:52:15;;;;;;;5.05;1.20;;;;;;;;;;5090081;28;20468;-65
2021/04/09 07:54:41;;;;;;;4.07;1.38;;;;;;;;;;5077994;28;20030;-67
2021/04/09 07:57:07;;;;;;;4.88;1.33;;;;;;;;;;5089465;28;20028;-67
2021/04/09 07:59:39;;;;;;;6.03;1.55;;;;;;;;;;5090126;28;20028;-67
2021/04/09 08:02:05;;;;;;;4.55;1.30;;;;;;;;;;5080828;28;20032;-67
2021/04/09 08:04:36;;;;;;;3.70;1.27;;;;;;;;;;5082523;28;20376;-66
2021/04/09 08:07:02;;;;;;;4.10;1.50;;;;;;;;;;5083814;28;20028;-67
2021/04/09 08:09:27;;;;;;;7.20;1.92;;;;;;;;;;5084572;28;20030;-67
2021/04/09 08:11:52;;;;;;;4.70;1.42;;;;;;;;;;5084709;28;20449;-67
2021/04/09 08:14:26;;;;;;;3.90;1.70;;;;;;;;;;5075801;28;20068;-66
2021/04/09 08:16:54;;;;;;;5.80;1.65;;;;;;;;;;5077501;28;20032;-66
2021/04/09 08:19:24;;;;;;;7.57;1.90;;;;;;;;;;5081410;28;20038;-67
2021/04/09 08:21:49;;;;;;;4.88;1.58;;;;;;;;;;5084365;28;20024;-67
2021/04/09 08:24:15;;;;;;;6.07;1.88;;;;;;;;;;5083823;28;20524;-67
2021/04/09 08:26:41;;;;;;;6.80;1.83;;;;;;;;;;5081146;28;20038;-67
2021/04/09 08:29:08;;;;;;;5.95;1.58;;;;;;;;;;5077849;28;20033;-67
2021/04/09 08:31:33;;;;;;;3.67;1.55;;;;;;;;;;5083177;28;20158;-67
2021/04/09 08:33:59;;;;;;;7.10;1.80;;;;;;;;;;5084064;28;20685;-65
2021/04/09 08:36:26;;;;;;;7.45;1.60;;;;;;;;;;5084388;28;20415;-66
2021/04/09 08:38:52;;;;;;;4.75;1.38;;;;;;;;;;5083791;28;20543;-66
2021/04/09 08:41:17;;;;;;;5.85;1.35;;;;;;;;;;5084491;28;20064;-66
2021/04/09 08:43:44;;;;;;;4.18;1.45;;;;;;;;;;5079726;28;20074;-65
2021/04/09 08:46:09;;;;;;;5.70;1.23;;;;;;;;;;5084240;28;20116;-66
2021/04/09 08:48:36;;;;;;;3.60;1.10;;;;;;;;;;5083632;28;20130;-66
2021/04/09 08:51:03;;;;;;;5.57;1.13;;;;;;;;;;5083818;28;20016;-65
2021/04/09 08:53:29;;;;;;;6.43;1.65;;;;;;;;;;5084851;28;20038;-65
2021/04/09 08:55:54;;;;;;;2.42;1.33;;;;;;;;;;5084483;28;20055;-65
2021/04/09 08:58:20;;;;;;;10.25;1.88;;;;;;;;;;5076546;28;20024;-65
2021/04/09 09:00:46;;;;;;;5.75;1.33;;;;;;;;;;5082619;28;20020;-65
2021/04/09 09:03:20;;;;;;;4.50;1.40;;;;;;;;;;5080680;28;20631;-65
2021/04/09 09:05:53;;;;;;;5.35;1.63;;;;;;;;;;5083105;28;20032;-65
2021/04/09 09:08:18;;;;;;;5.10;1.80;;;;;;;;;;5081757;28;20506;-65
2021/04/09 09:10:44;;;;;;;3.92;1.33;;;;;;;;;;5084496;28;20047;-65
2021/04/09 09:13:13;;;;;;;6.43;1.80;;;;;;;;;;5083627;28;20103;-65
2021/04/09 09:15:42;;;;;;;5.70;1.50;;;;;;;;;;5083423;28;20397;-67
2021/04/09 09:18:23;;;;;;;1.73;0.80;;;;;;;;;;5082686;28;20027;-67
2021/04/09 09:21:01;;;;;;;4.90;1.40;;;;;;;;;;5068337;28;20107;-67
2021/04/09 09:23:40;;;;;;;2.90;1.10;;;;;;;;;;5081603;28;20040;-67
2021/04/09 09:26:17;;;;;;;2.70;1.00;;;;;;;;;;5082066;28;20036;-67
2021/04/09 09:28:46;;;;;;;3.50;1.20;;;;;;;;;;5081139;28;20039;-67
2021/04/09 09:31:29;;;;;;;3.47;1.30;;;;;;;;;;5081050;28;20480;-66
2021/04/09 09:34:14;;;;;;;4.15;1.27;;;;;;;;;;5076195;28;20507;-67
2021/04/09 09:36:58;;;;;;;2.83;1.27;;;;;;;;;;5067441;28;20056;-66
2021/04/09 09:39:50;;;;;;;4.03;1.20;;;;;;;;;;5082573;28;20506;-67
2021/04/09 09:42:28;;;;;;;4.65;1.55;;;;;;;;;;5078677;28;20051;-67
2021/04/09 09:44:53;;;;;;;4.38;1.52;;;;;;;;;;5083141;28;20028;-67
2021/04/09 09:47:20;;;;;;;6.03;1.20;;;;;;;;;;5084097;28;20040;-67
2021/04/09 09:50:01;;;;;;;3.30;1.75;;;;;;;;;;5083054;28;20051;-66
2021/04/09 09:52:41;;;;;;;3.55;1.52;;;;;;;;;;5082730;28;20372;-66
2021/04/09 09:55:12;;;;;;;2.20;1.42;;;;;;;;;;5083618;28;20039;-67
2021/04/09 09:57:46;;;;;;;3.47;2.00;;;;;;;;;;5079633;28;20089;-66
2021/04/09 10:00:12;;;;;;;4.80;1.30;;;;;;;;;;5082727;28;20047;-66
2021/04/09 10:02:37;;;;;;;3.75;1.30;;;;;;;;;;5081166;28;20028;-66
2021/04/09 10:05:03;;;;;;;5.38;1.65;;;;;;;;;;5082613;28;20435;-66
2021/04/09 10:07:29;;;;;;;3.13;1.20;;;;;;;;;;5083005;28;20122;-66
2021/04/09 10:09:54;;;;;;;4.55;1.27;;;;;;;;;;5082238;28;20642;-66
2021/04/09 10:12:20;;;;;;;5.10;1.48;;;;;;;;;;5082672;28;20030;-67
2021/04/09 10:14:45;;;;;;;5.35;1.83;;;;;;;;;;5082576;28;20168;-66
2021/04/09 10:17:10;;;;;;;2.13;1.23;;;;;;;;;;5082659;28;20488;-66
2021/04/09 10:19:36;;;;;;;3.38;1.77;;;;;;;;;;5082693;28;20099;-67
2021/04/09 10:22:01;;;;;;;4.28;1.95;;;;;;;;;;5082484;28;20434;-66
2021/04/09 10:24:28;;;;;;;2.83;1.15;;;;;;;;;;5082636;28;20036;-67
2021/04/09 10:27:02;;;;;;;8.45;1.30;;;;;;;;;;5080412;28;20031;-67
2021/04/09 10:29:33;;;;;;;4.57;1.08;;;;;;;;;;5073814;28;20058;-67
2021/04/09 10:31:58;;;;;;;3.33;1.10;;;;;;;;;;5076253;28;20081;-67
2021/04/09 10:34:29;;;;;;;1.60;0.80;;;;;;;;;;5078437;28;20443;-67
2021/04/09 10:36:56;;;;;;;4.47;1.00;;;;;;;;;;5082499;28;20468;-67
2021/04/09 10:39:23;;;;;;;2.75;1.02;;;;;;;;;;5082082;28;20048;-67
2021/04/09 10:41:49;;;;;;;3.22;0.80;;;;;;;;;;5083717;28;20144;-67
2021/04/09 10:44:18;;;;;;;1.92;0.90;;;;;;;;;;5078670;28;20056;-67
2021/04/09 10:46:47;;;;;;;1.77;0.80;;;;;;;;;;5086195;28;20043;-67
2021/04/09 10:49:20;;;;;;;3.65;0.80;;;;;;;;;;5082777;28;20423;-67
2021/04/09 10:51:47;;;;;;;3.28;1.02;;;;;;;;;;5065471;28;20043;-67
2021/04/09 10:54:20;;;;;;;1.52;0.60;;;;;;;;;;5066120;28;20036;-67
2021/04/09 10:56:52;;;;;;;1.95;0.60;;;;;;;;;;5056401;28;20392;-67
2021/04/09 10:59:18;;;;;;;4.50;1.10;;;;;;;;;;5082126;28;20544;-66
2021/04/09 11:01:44;;;;;;;1.20;0.50;;;;;;;;;;5085425;28;20023;-67
2021/04/09 11:04:12;;;;;;;1.85;0.95;;;;;;;;;;5077397;28;20028;-66
2021/04/09 11:06:37;;;;;;;4.72;1.00;;;;;;;;;;5085761;28;20039;-67
2021/04/09 11:09:07;;;;;;;10.07;1.27;;;;;;;;;;5086325;28;20024;-67
2021/04/09 11:11:34;;;;;;;4.32;1.27;;;;;;;;;;5077742;28;20040;-66
2021/04/09 11:14:05;;;;;;;2.28;1.05;;;;;;;;;;5064865;28;20048;-67
2021/04/09 11:16:45;;;;;;;4.30;1.10;;;;;;;;;;5067421;28;20159;-67
2021/04/09 11:19:19;;;;;;;3.63;1.17;;;;;;;;;;5081521;28;20482;-67
2021/04/09 11:21:46;;;;;;;4.75;1.45;;;;;;;;;;5082753;28;20032;-66
2021/04/09 11:24:13;;;;;;;6.32;1.15;;;;;;;;;;5098207;28;20417;-66
2021/04/09 11:26:38;;;;;;;4.15;1.35;;;;;;;;;;5084191;28;20384;-66
2021/04/09 11:29:03;;;;;;;3.03;1.10;;;;;;;;;;5085423;28;20035;-66
2021/04/09 11:31:29;;;;;;;7.80;1.60;;;;;;;;;;5084883;28;20064;-67
2021/04/09 11:34:01;;;;;;;2.78;1.30;;;;;;;;;;5084702;28;20432;-66
2021/04/09 11:36:27;;;;;;;5.22;1.42;;;;;;;;;;5074518;28;20113;-67
2021/04/09 11:39:12;;;;;;;4.50;1.80;;;;;;;;;;5081803;28;20082;-66
2021/04/09 11:41:37;;;;;;;3.65;2.08;;;;;;;;;;5084017;28;20047;-67
2021/04/09 11:44:21;;;;;;;4.05;1.60;;;;;;;;;;5083986;28;20028;-67
2021/04/09 11:46:47;;;;;;;3.72;1.10;;;;;;;;;;5084619;28;20439;-67
2021/04/09 11:49:13;;;;;;;2.13;1.10;;;;;;;;;;5083848;28;20261;-67
2021/04/09 11:51:39;;;;;;;4.80;1.00;;;;;;;;;;5083959;28;20040;-67
2021/04/09 11:54:05;;;;;;;2.53;1.13;;;;;;;;;;5084642;28;20031;-66
2021/04/09 11:56:40;;;;;;;4.18;1.00;;;;;;;;;;5082812;28;20067;-67
2021/04/09 11:59:12;;;;;;;1.50;0.80;;;;;;;;;;5080629;28;20090;-66
2021/04/09 12:01:38;;;;;;;3.05;0.70;;;;;;;;;;5085060;28;20036;-66
2021/04/09 12:04:03;;;;;;;1.17;0.70;;;;;;;;;;5083358;28;20036;-66
2021/04/09 12:06:34;;;;;;;3.20;1.10;;;;;;;;;;5080492;28;20024;-66
2021/04/09 12:09:00;;;;;;;0.80;0.55;;;;;;;;;;5083277;28;20268;-66
2021/04/09 12:11:28;;;;;;;1.50;0.63;;;;;;;;;;5084196;28;20459;-66
2021/04/09 12:13:53;;;;;;;2.35;0.68;;;;;;;;;;5083593;28;20496;-66
2021/04/09 12:16:18;;;;;;;3.63;0.98;;;;;;;;;;5083606;28;20134;-66
2021/04/09 12:18:43;;;;;;;1.50;0.70;;;;;;;;;;5080994;28;20028;-66
2021/04/09 12:21:09;;;;;;;2.13;1.20;;;;;;;;;;5073956;28;20024;-66
2021/04/09 12:23:34;;;;;;;5.32;2.03;;;;;;;;;;5083381;28;20054;-66
2021/04/09 12:25:59;;;;;;;2.47;0.98;;;;;;;;;;5070165;28;20039;-66
2021/04/09 12:28:25;;;;;;;1.13;0.88;;;;;;;;;;5083386;28;20042;-66
2021/04/09 12:30:51;;;;;;;3.80;1.10;;;;;;;;;;5083461;28;20040;-66
2021/04/09 12:33:17;;;;;;;1.13;0.85;;;;;;;;;;5083335;28;20495;-66
2021/04/09 12:35:42;;;;;;;2.85;0.85;;;;;;;;;;5083523;28;20028;-66
2021/04/09 12:38:07;;;;;;;4.88;1.10;;;;;;;;;;5083138;28;20031;-66
2021/04/09 12:41:00;;;;;;;;;;;;;;;;;;5080113;27;21259;-66
2021/04/09 12:43:25;;;;;;;4.23;1.07;;;;;;;;;;5072936;28;19912;-66
2021/04/09 12:45:50;;;;;;;6.13;1.20;;;;;;;;;;5080112;28;20043;-66
2021/04/09 12:48:16;;;;;;;1.88;1.05;;;;;;;;;;5080065;28;20362;-66
2021/04/09 12:50:41;;;;;;;2.58;1.20;;;;;;;;;;5077006;28;20245;-66
2021/04/09 12:53:06;;;;;;;2.95;1.05;;;;;;;;;;5068010;28;20127;-66
2021/04/09 12:55:32;;;;;;;3.03;1.25;;;;;;;;;;5058609;28;20028;-66
2021/04/09 12:57:57;;;;;;;4.15;1.30;;;;;;;;;;5061865;28;20033;-66
2021/04/09 13:00:22;;;;;;;2.97;0.93;;;;;;;;;;5055809;28;20071;-66
2021/04/09 13:02:48;;;;;;;1.25;0.63;;;;;;;;;;5058718;28;20059;-66
2021/04/09 13:05:13;;;;;;;2.55;1.00;;;;;;;;;;5058864;28;20040;-66
2021/04/09 13:07:39;;;;;;;2.30;1.15;;;;;;;;;;5059471;28;20388;-66
2021/04/09 13:10:04;;;;;;;4.97;0.90;;;;;;;;;;5059480;28;20036;-66
2021/04/09 13:12:30;;;;;;;1.55;0.73;;;;;;;;;;5058762;28;20029;-66
2021/04/09 13:14:55;;;;;;;1.75;0.90;;;;;;;;;;5059028;28;20033;-66
2021/04/09 13:17:20;;;;;;;3.28;0.90;;;;;;;;;;5059219;28;20036;-66
2021/04/09 13:19:46;;;;;;;2.95;0.82;;;;;;;;;;5059007;28;20051;-66
2021/04/09 13:22:11;;;;;;;2.38;0.90;;;;;;;;;;5059049;28;20032;-67
2021/04/09 13:24:36;;;;;;;2.25;0.95;;;;;;;;;;5060422;28;20028;-66
2021/04/09 13:27:04;;;;;;;1.80;0.70;;;;;;;;;;5057141;28;20159;-66
2021/04/09 13:29:30;;;;;;;1.30;0.80;;;;;;;;;;5059490;28;20025;-66
2021/04/09 13:31:55;;;;;;;3.17;1.15;;;;;;;;;;5059059;28;20067;-66
2021/04/09 13:34:20;;;;;;;2.70;1.05;;;;;;;;;;5058990;28;20057;-66
2021/04/09 13:36:45;;;;;;;3.65;0.85;;;;;;;;;;5061164;28;20036;-66
2021/04/09 13:39:11;;;;;;;4.00;0.90;;;;;;;;;;5060262;28;20071;-67
2021/04/09 13:41:36;;;;;;;3.00;1.00;;;;;;;;;;5059872;28;20087;-66
2021/04/09 13:44:03;;;;;;;1.58;0.88;;;;;;;;;;5060829;28;20036;-66
2021/04/09 13:46:28;;;;;;;3.53;1.00;;;;;;;;;;5059675;28;20093;-66
2021/04/09 13:48:53;;;;;;;3.47;0.73;;;;;;;;;;5060508;28;20040;-66
2021/04/09 13:51:19;;;;;;;3.42;0.80;;;;;;;;;;5051974;28;20040;-66
2021/04/09 13:53:44;;;;;;;6.68;1.40;;;;;;;;;;5047454;28;20369;-66
2021/04/09 13:56:09;;;;;;;1.67;0.90;;;;;;;;;;5046453;28;20105;-66
2021/04/09 13:58:35;;;;;;;1.45;0.80;;;;;;;;;;5046131;28;20170;-66
2021/04/09 14:01:00;;;;;;;2.28;0.90;;;;;;;;;;5047343;28;20066;-66
2021/04/09 14:03:26;;;;;;;2.60;1.00;;;;;;;;;;5047070;28;20036;-66
2021/04/09 14:05:51;;;;;;;3.08;0.82;;;;;;;;;;5046813;28;20037;-66
2021/04/09 14:08:16;;;;;;;3.35;0.95;;;;;;;;;;5040325;28;20025;-66
2021/04/09 14:10:42;;;;;;;3.88;1.00;;;;;;;;;;5044230;28;20055;-66
2021/04/09 14:13:09;;;;;;;5.75;1.15;;;;;;;;;;5044821;28;20035;-66
2021/04/09 14:15:35;;;;;;;3.38;1.10;;;;;;;;;;5045350;28;20401;-66
2021/04/09 14:18:00;;;;;;;2.22;0.77;;;;;;;;;;5043481;28;20036;-67
2021/04/09 14:20:25;;;;;;;5.40;1.13;;;;;;;;;;5044386;28;20554;-67
2021/04/09 14:22:51;;;;;;;3.20;0.82;;;;;;;;;;5044550;28;20547;-66
2021/04/09 14:25:17;;;;;;;3.47;1.10;;;;;;;;;;5044710;28;20040;-67
2021/04/09 14:27:45;;;;;;;3.63;1.10;;;;;;;;;;5044048;28;20539;-67
2021/04/09 14:30:12;;;;;;;4.22;1.13;;;;;;;;;;5043995;28;20685;-67
2021/04/09 14:32:37;;;;;;;3.35;1.40;;;;;;;;;;5043365;28;20541;-66
2021/04/09 14:35:03;;;;;;;2.53;1.02;;;;;;;;;;5044993;28;20127;-66
2021/04/09 14:37:28;;;;;;;5.18;0.95;;;;;;;;;;5045047;28;20104;-66
2021/04/09 14:39:54;;;;;;;1.45;0.90;;;;;;;;;;5043412;28;20059;-67